AEE750 LGAV-EKCH
Flight info
| Callsign | AEE750 |
|---|---|
| Flight time | N/A |
| Altitude | 36000 |
| Route | KOR UL53 ELVAS DCT DIMIS DCT ODRAS DCT UTOMO DCT TORTO DCT TONDO/N0444F380 DCT MAVOR DCT ELVOT DCT PESEL DCT USEDU M602 PENET T298 MONAK |
| Aircraft | A320/M-SDE3FGHIRWY/LB1 |
Departure
| Time | 2026-05-06 08:53 |
|---|---|
| Airport | Athens Eleftherios Venizelos International Airport (LGAV) |
Arrival
| Time | N/A |
|---|---|
| Airport | Copenhagen Kastrup Airport (EKCH) |
| Time | Latitude | Longitude | Altitude | Speed | Heading |
|---|---|---|---|---|---|
| 2026-05-06 08:43 | 37.93705 | 23.95328 | 298 ft | 3 kts | 216° |
| 2026-05-06 08:43 | 37.93616 | 23.95246 | 298 ft | 24 kts | 217° |
| 2026-05-06 08:44 | 37.93474 | 23.95113 | 299 ft | 26 kts | 217° |
| 2026-05-06 08:44 | 37.93332 | 23.94978 | 299 ft | 26 kts | 217° |
| 2026-05-06 08:44 | 37.93193 | 23.94846 | 301 ft | 25 kts | 217° |
| 2026-05-06 08:44 | 37.93051 | 23.94712 | 301 ft | 26 kts | 217° |
| 2026-05-06 08:45 | 37.92905 | 23.94572 | 302 ft | 27 kts | 217° |
| 2026-05-06 08:45 | 37.92763 | 23.94436 | 302 ft | 25 kts | 217° |
| 2026-05-06 08:45 | 37.92633 | 23.94314 | 305 ft | 21 kts | 216° |
| 2026-05-06 08:45 | 37.92557 | 23.94298 | 305 ft | 9 kts | 149° |
| 2026-05-06 08:46 | 37.92536 | 23.94325 | 306 ft | 0 kts | 126° |
| 2026-05-06 08:50 | 37.92522 | 23.94350 | 306 ft | 13 kts | 126° |
| 2026-05-06 08:51 | 37.92478 | 23.94434 | 308 ft | 7 kts | 96° |
| 2026-05-06 08:51 | 37.92492 | 23.94461 | 308 ft | 0 kts | 39° |
| 2026-05-06 08:51 | 37.92499 | 23.94468 | 308 ft | 4 kts | 39° |
| 2026-05-06 08:52 | 37.92680 | 23.94642 | 304 ft | 69 kts | 37° |
| 2026-05-06 08:52 | 37.93238 | 23.95173 | 294 ft | 128 kts | 37° |
| 2026-05-06 08:52 | 37.94074 | 23.95967 | 311 ft | 168 kts | 37° |
| 2026-05-06 08:52 | 37.95012 | 23.96859 | 906 ft | 168 kts | 38° |
| 2026-05-06 08:53 | 37.95940 | 23.97742 | 1595 ft | 166 kts | 38° |
| 2026-05-06 08:53 | 37.96869 | 23.98633 | 2151 ft | 173 kts | 37° |
| 2026-05-06 08:53 | 37.97879 | 23.99604 | 2453 ft | 193 kts | 37° |
| 2026-05-06 08:53 | 37.99013 | 24.00692 | 2760 ft | 216 kts | 36° |
| 2026-05-06 08:54 | 38.00283 | 24.01912 | 3156 ft | 241 kts | 36° |
| 2026-05-06 08:54 | 38.01657 | 24.03229 | 3832 ft | 251 kts | 36° |
| 2026-05-06 08:54 | 38.03059 | 24.04577 | 4704 ft | 255 kts | 36° |
| 2026-05-06 08:54 | 38.04577 | 24.05828 | 5335 ft | 268 kts | 20° |
| 2026-05-06 08:55 | 38.06418 | 24.06151 | 6115 ft | 272 kts | 352° |
| 2026-05-06 08:55 | 38.08184 | 24.05334 | 6931 ft | 273 kts | 324° |
| 2026-05-06 08:55 | 38.09595 | 24.03724 | 7777 ft | 275 kts | 308° |
| 2026-05-06 08:55 | 38.10674 | 24.01747 | 8635 ft | 277 kts | 304° |
| 2026-05-06 08:56 | 38.11800 | 23.99749 | 9482 ft | 280 kts | 307° |
| 2026-05-06 08:56 | 38.12985 | 23.97778 | 10279 ft | 283 kts | 308° |
| 2026-05-06 08:56 | 38.14244 | 23.95729 | 10584 ft | 305 kts | 308° |
| 2026-05-06 08:56 | 38.15604 | 23.93528 | 10763 ft | 328 kts | 308° |
| 2026-05-06 08:57 | 38.17036 | 23.91199 | 11208 ft | 339 kts | 308° |
| 2026-05-06 08:57 | 38.18495 | 23.88809 | 11871 ft | 343 kts | 308° |
| 2026-05-06 08:57 | 38.19961 | 23.86390 | 12559 ft | 347 kts | 308° |
| 2026-05-06 08:57 | 38.21436 | 23.83945 | 13233 ft | 350 kts | 308° |
| 2026-05-06 08:58 | 38.22921 | 23.81469 | 13935 ft | 354 kts | 308° |
| 2026-05-06 08:58 | 38.24417 | 23.78972 | 14572 ft | 356 kts | 308° |
| 2026-05-06 08:58 | 38.25920 | 23.76467 | 15216 ft | 357 kts | 308° |
| 2026-05-06 08:58 | 38.27427 | 23.73950 | 15832 ft | 358 kts | 308° |
| 2026-05-06 08:59 | 38.28939 | 23.71427 | 16462 ft | 359 kts | 308° |
| 2026-05-06 08:59 | 38.30456 | 23.68897 | 17109 ft | 360 kts | 308° |
| 2026-05-06 08:59 | 38.31976 | 23.66358 | 17757 ft | 361 kts | 308° |
| 2026-05-06 08:59 | 38.33500 | 23.63809 | 18398 ft | 362 kts | 308° |
| 2026-05-06 09:00 | 38.35028 | 23.61254 | 18953 ft | 364 kts | 308° |
| 2026-05-06 09:00 | 38.36567 | 23.58682 | 19487 ft | 366 kts | 308° |
| 2026-05-06 09:00 | 38.38112 | 23.56093 | 20023 ft | 369 kts | 308° |
| 2026-05-06 09:00 | 38.39669 | 23.53475 | 20544 ft | 372 kts | 308° |
| 2026-05-06 09:01 | 38.41234 | 23.50839 | 21035 ft | 375 kts | 308° |
| 2026-05-06 09:01 | 38.42814 | 23.48183 | 21501 ft | 378 kts | 308° |
| 2026-05-06 09:01 | 38.44408 | 23.45503 | 21960 ft | 380 kts | 308° |
| 2026-05-06 09:01 | 38.46011 | 23.42805 | 22424 ft | 383 kts | 308° |
| 2026-05-06 09:02 | 38.47606 | 23.40127 | 22883 ft | 386 kts | 308° |
| 2026-05-06 09:02 | 38.49257 | 23.37357 | 23339 ft | 387 kts | 308° |
| 2026-05-06 09:02 | 38.50889 | 23.34603 | 23755 ft | 390 kts | 308° |
| 2026-05-06 09:02 | 38.52506 | 23.31866 | 24107 ft | 393 kts | 308° |
| 2026-05-06 09:03 | 38.54158 | 23.29071 | 24462 ft | 395 kts | 308° |
| 2026-05-06 09:03 | 38.55817 | 23.26263 | 24833 ft | 397 kts | 308° |
| 2026-05-06 09:03 | 38.57488 | 23.23434 | 25194 ft | 400 kts | 308° |
| 2026-05-06 09:03 | 38.59165 | 23.20593 | 25567 ft | 402 kts | 308° |
| 2026-05-06 09:04 | 38.60851 | 23.17735 | 25927 ft | 404 kts | 308° |
| 2026-05-06 09:04 | 38.62542 | 23.14861 | 26301 ft | 406 kts | 308° |
| 2026-05-06 09:04 | 38.64242 | 23.11968 | 26674 ft | 408 kts | 308° |
| 2026-05-06 09:04 | 38.65950 | 23.09064 | 27040 ft | 410 kts | 308° |
| 2026-05-06 09:05 | 38.67663 | 23.06146 | 27411 ft | 412 kts | 308° |
| 2026-05-06 09:05 | 38.69388 | 23.03202 | 27771 ft | 414 kts | 308° |
| 2026-05-06 09:05 | 38.71118 | 23.00251 | 28125 ft | 416 kts | 308° |
| 2026-05-06 09:05 | 38.72860 | 22.97281 | 28473 ft | 418 kts | 308° |
| 2026-05-06 09:06 | 38.74609 | 22.94302 | 28827 ft | 420 kts | 308° |
| 2026-05-06 09:06 | 38.76369 | 22.91301 | 29291 ft | 420 kts | 308° |
| 2026-05-06 09:06 | 38.78112 | 22.88320 | 29820 ft | 418 kts | 308° |
| 2026-05-06 09:06 | 38.79851 | 22.85342 | 30305 ft | 417 kts | 308° |
| 2026-05-06 09:07 | 38.81587 | 22.82366 | 30738 ft | 415 kts | 308° |
| 2026-05-06 09:07 | 38.83310 | 22.79402 | 31174 ft | 414 kts | 307° |
| 2026-05-06 09:07 | 38.85027 | 22.76445 | 31609 ft | 413 kts | 307° |
| 2026-05-06 09:07 | 38.86741 | 22.73498 | 32043 ft | 412 kts | 307° |
| 2026-05-06 09:08 | 38.88451 | 22.70559 | 32483 ft | 411 kts | 307° |
| 2026-05-06 09:08 | 38.90158 | 22.67622 | 32910 ft | 410 kts | 307° |
| 2026-05-06 09:08 | 38.91858 | 22.64698 | 33333 ft | 409 kts | 307° |
| 2026-05-06 09:08 | 38.93555 | 22.61771 | 33763 ft | 408 kts | 307° |
| 2026-05-06 09:09 | 38.95247 | 22.58843 | 34174 ft | 408 kts | 307° |
| 2026-05-06 09:09 | 38.96914 | 22.55957 | 34555 ft | 407 kts | 307° |
| 2026-05-06 09:09 | 38.98596 | 22.53042 | 34914 ft | 406 kts | 307° |
| 2026-05-06 09:09 | 39.00297 | 22.50098 | 35287 ft | 404 kts | 307° |
| 2026-05-06 09:10 | 39.01950 | 22.47236 | 35644 ft | 403 kts | 307° |
| 2026-05-06 09:10 | 39.03618 | 22.44349 | 35981 ft | 403 kts | 306° |
| 2026-05-06 09:10 | 39.05292 | 22.41444 | 36066 ft | 406 kts | 306° |
| 2026-05-06 09:11 | 39.08671 | 22.35562 | 36078 ft | 410 kts | 306° |
| 2026-05-06 09:11 | 39.12070 | 22.29646 | 36077 ft | 411 kts | 306° |
| 2026-05-06 09:12 | 39.15465 | 22.23726 | 36084 ft | 411 kts | 306° |
| 2026-05-06 09:12 | 39.18861 | 22.17800 | 36081 ft | 411 kts | 306° |
| 2026-05-06 09:13 | 39.22252 | 22.11880 | 36067 ft | 410 kts | 306° |
| 2026-05-06 09:13 | 39.25640 | 22.05944 | 36073 ft | 411 kts | 306° |
| 2026-05-06 09:14 | 39.29026 | 21.99995 | 36076 ft | 412 kts | 306° |
| 2026-05-06 09:14 | 39.32409 | 21.94031 | 36073 ft | 412 kts | 306° |
| 2026-05-06 09:15 | 39.35794 | 21.88061 | 36080 ft | 412 kts | 306° |
| 2026-05-06 09:15 | 39.39188 | 21.82089 | 36083 ft | 412 kts | 306° |
| 2026-05-06 09:16 | 39.42575 | 21.76109 | 36090 ft | 412 kts | 305° |
| 2026-05-06 09:16 | 39.45960 | 21.70114 | 36083 ft | 413 kts | 305° |
| 2026-05-06 09:17 | 39.49344 | 21.64100 | 36084 ft | 413 kts | 305° |
| 2026-05-06 09:17 | 39.52703 | 21.58124 | 36098 ft | 413 kts | 305° |
| 2026-05-06 09:18 | 39.56082 | 21.52098 | 36117 ft | 413 kts | 305° |
| 2026-05-06 09:18 | 39.59457 | 21.46073 | 36103 ft | 413 kts | 305° |
| 2026-05-06 09:19 | 39.62830 | 21.40040 | 36111 ft | 413 kts | 305° |
| 2026-05-06 09:19 | 39.66204 | 21.33997 | 36111 ft | 414 kts | 305° |
| 2026-05-06 09:20 | 39.69575 | 21.27947 | 36111 ft | 413 kts | 305° |
| 2026-05-06 09:20 | 39.72942 | 21.21888 | 36131 ft | 414 kts | 305° |
| 2026-05-06 09:21 | 39.76306 | 21.15818 | 36132 ft | 414 kts | 305° |
| 2026-05-06 09:21 | 39.79664 | 21.09747 | 36131 ft | 414 kts | 304° |
| 2026-05-06 09:22 | 39.83028 | 21.03662 | 36139 ft | 414 kts | 305° |
| 2026-05-06 09:22 | 39.86370 | 20.97615 | 36144 ft | 414 kts | 304° |
| 2026-05-06 09:23 | 39.89729 | 20.91514 | 36144 ft | 415 kts | 304° |
| 2026-05-06 09:23 | 39.91783 | 20.87772 | 36142 ft | 415 kts | 304° |
| 2026-05-06 09:24 | 39.95134 | 20.81661 | 36139 ft | 414 kts | 304° |
| 2026-05-06 09:24 | 39.98485 | 20.75545 | 36136 ft | 415 kts | 304° |
| 2026-05-06 09:25 | 40.01837 | 20.69411 | 36131 ft | 415 kts | 304° |
| 2026-05-06 09:25 | 40.05356 | 20.63444 | 36131 ft | 417 kts | 314° |
| 2026-05-06 09:26 | 40.10139 | 20.59146 | 36125 ft | 422 kts | 334° |
| 2026-05-06 09:26 | 40.15842 | 20.57101 | 36132 ft | 428 kts | 345° |
| 2026-05-06 09:27 | 40.21669 | 20.55496 | 36125 ft | 428 kts | 345° |
| 2026-05-06 09:27 | 40.27497 | 20.53869 | 36123 ft | 428 kts | 345° |
| 2026-05-06 09:28 | 40.33322 | 20.52240 | 36124 ft | 428 kts | 345° |
| 2026-05-06 09:28 | 40.39154 | 20.50617 | 36132 ft | 428 kts | 344° |
| 2026-05-06 09:29 | 40.44979 | 20.48992 | 36131 ft | 428 kts | 344° |
| 2026-05-06 09:29 | 40.50809 | 20.47358 | 36131 ft | 428 kts | 344° |
| 2026-05-06 09:30 | 40.56631 | 20.45726 | 36130 ft | 428 kts | 344° |
| 2026-05-06 09:30 | 40.62426 | 20.44101 | 36128 ft | 429 kts | 344° |
| 2026-05-06 09:31 | 40.68264 | 20.42459 | 36121 ft | 429 kts | 344° |
| 2026-05-06 09:31 | 40.74098 | 20.40801 | 36119 ft | 429 kts | 344° |
| 2026-05-06 09:32 | 40.79941 | 20.39154 | 36123 ft | 430 kts | 344° |
| 2026-05-06 09:32 | 40.85766 | 20.37513 | 36121 ft | 430 kts | 344° |
| 2026-05-06 09:33 | 40.91587 | 20.35864 | 36118 ft | 430 kts | 344° |
| 2026-05-06 09:33 | 40.97431 | 20.34205 | 36116 ft | 430 kts | 344° |
| 2026-05-06 09:34 | 41.03279 | 20.32543 | 36120 ft | 429 kts | 344° |
| 2026-05-06 09:34 | 41.09120 | 20.30878 | 36118 ft | 430 kts | 344° |
| 2026-05-06 09:35 | 41.14964 | 20.29210 | 36118 ft | 430 kts | 344° |
| 2026-05-06 09:35 | 41.20813 | 20.27545 | 36128 ft | 430 kts | 344° |
| 2026-05-06 09:36 | 41.26657 | 20.25871 | 36130 ft | 429 kts | 344° |
| 2026-05-06 09:36 | 41.32505 | 20.24187 | 36124 ft | 429 kts | 344° |
| 2026-05-06 09:37 | 41.38342 | 20.22507 | 36117 ft | 430 kts | 344° |
| 2026-05-06 09:37 | 41.43204 | 20.21112 | 36131 ft | 430 kts | 344° |
| 2026-05-06 09:38 | 41.49987 | 20.19160 | 36125 ft | 429 kts | 344° |
| 2026-05-06 09:38 | 41.54875 | 20.17742 | 36123 ft | 429 kts | 344° |
| 2026-05-06 09:39 | 41.61655 | 20.15760 | 36119 ft | 429 kts | 343° |
| 2026-05-06 09:39 | 41.67486 | 20.14059 | 36124 ft | 429 kts | 344° |
| 2026-05-06 09:40 | 41.73320 | 20.12366 | 36113 ft | 429 kts | 344° |
| 2026-05-06 09:40 | 41.81098 | 20.10088 | 36104 ft | 430 kts | 344° |
| 2026-05-06 09:41 | 41.86988 | 20.08359 | 36118 ft | 431 kts | 343° |
| 2026-05-06 09:41 | 41.92836 | 20.06640 | 36119 ft | 431 kts | 343° |
| 2026-05-06 09:42 | 41.98652 | 20.04927 | 36115 ft | 431 kts | 343° |
| 2026-05-06 09:42 | 42.04510 | 20.03200 | 36110 ft | 430 kts | 343° |
| 2026-05-06 09:43 | 42.10362 | 20.01468 | 36116 ft | 431 kts | 343° |
| 2026-05-06 09:43 | 42.16216 | 19.99732 | 36117 ft | 431 kts | 343° |
| 2026-05-06 09:44 | 42.22071 | 19.97998 | 36114 ft | 431 kts | 343° |
| 2026-05-06 09:44 | 42.27927 | 19.96255 | 36115 ft | 431 kts | 343° |
| 2026-05-06 09:45 | 42.33783 | 19.94511 | 36107 ft | 431 kts | 343° |
| 2026-05-06 09:45 | 42.39646 | 19.92768 | 36106 ft | 431 kts | 343° |
| 2026-05-06 09:46 | 42.45511 | 19.91010 | 36111 ft | 432 kts | 343° |
| 2026-05-06 09:46 | 42.51341 | 19.89260 | 36116 ft | 432 kts | 343° |
| 2026-05-06 09:47 | 42.57208 | 19.87506 | 36104 ft | 432 kts | 343° |
| 2026-05-06 09:47 | 42.63077 | 19.85742 | 36094 ft | 432 kts | 343° |
| 2026-05-06 09:48 | 42.69055 | 19.84750 | 36105 ft | 436 kts | 351° |
| 2026-05-06 09:48 | 42.75099 | 19.84048 | 36087 ft | 436 kts | 351° |
| 2026-05-06 09:49 | 42.81047 | 19.83351 | 36071 ft | 436 kts | 351° |
| 2026-05-06 09:49 | 42.87088 | 19.82646 | 36061 ft | 436 kts | 351° |
| 2026-05-06 09:50 | 42.93130 | 19.81935 | 36057 ft | 436 kts | 351° |
| 2026-05-06 09:50 | 42.99180 | 19.81220 | 36053 ft | 436 kts | 351° |
| 2026-05-06 09:51 | 43.05225 | 19.80509 | 36048 ft | 437 kts | 351° |
| 2026-05-06 09:51 | 43.11281 | 19.79795 | 36052 ft | 437 kts | 351° |
| 2026-05-06 09:52 | 43.17346 | 19.79086 | 36046 ft | 438 kts | 351° |
| 2026-05-06 09:52 | 43.23420 | 19.78361 | 36045 ft | 438 kts | 351° |
| 2026-05-06 09:53 | 43.29491 | 19.77636 | 36043 ft | 439 kts | 351° |
| 2026-05-06 09:53 | 43.35576 | 19.76907 | 36044 ft | 439 kts | 351° |
| 2026-05-06 09:54 | 43.41664 | 19.76174 | 36037 ft | 439 kts | 351° |
| 2026-05-06 09:54 | 43.47753 | 19.75448 | 36047 ft | 439 kts | 351° |
| 2026-05-06 09:55 | 43.53801 | 19.74732 | 36036 ft | 439 kts | 351° |
| 2026-05-06 09:55 | 43.59862 | 19.74008 | 36034 ft | 438 kts | 351° |
| 2026-05-06 09:56 | 43.65942 | 19.73270 | 36038 ft | 438 kts | 351° |
| 2026-05-06 09:56 | 43.72004 | 19.72466 | 36032 ft | 438 kts | 349° |
| 2026-05-06 09:57 | 43.78017 | 19.71516 | 36022 ft | 438 kts | 349° |
| 2026-05-06 09:57 | 43.84075 | 19.70546 | 36014 ft | 438 kts | 349° |
| 2026-05-06 09:58 | 43.90138 | 19.69621 | 36024 ft | 438 kts | 349° |
| 2026-05-06 09:58 | 43.96199 | 19.68701 | 36024 ft | 438 kts | 349° |
| 2026-05-06 09:59 | 44.02260 | 19.67770 | 36016 ft | 438 kts | 349° |
| 2026-05-06 09:59 | 44.08322 | 19.66836 | 36033 ft | 438 kts | 349° |
| 2026-05-06 10:00 | 44.14374 | 19.65900 | 36025 ft | 438 kts | 349° |
| 2026-05-06 10:00 | 44.20433 | 19.64969 | 36013 ft | 438 kts | 349° |
| 2026-05-06 10:01 | 44.26495 | 19.64041 | 36015 ft | 439 kts | 349° |